Time;durP1;ratioP1;P1;durP2;ratioP2;P2;SDS_P1;SDS_P2;PMS_P1;PMS_P2;Temp;Humidity;BMP_temperature;BMP_pressure;BME280_temperature;BME280_humidity;BME280_pressure;Samples;Min_cycle;Max_cycle;Signal;HPM_P1;HPM_P2
2022/09/09 00:01:13;;;;;;;0.40;0.40;;;15.40;99.90;;;;;;4254238;33;20100;-74
2022/09/09 00:03:47;;;;;;;0.40;0.40;;;15.30;99.90;;;;;;4262864;33;20893;-73
2022/09/09 00:06:25;;;;;;;0.35;0.35;;;15.30;99.90;;;;;;4261512;33;20149;-73
2022/09/09 00:09:18;;;;;;;0.40;0.40;;;15.40;99.90;;;;;;4261504;33;20429;-74
2022/09/09 00:11:48;;;;;;;0.50;0.50;;;15.40;99.90;;;;;;4262983;33;20081;-75
2022/09/09 00:14:19;;;;;;;0.40;0.40;;;15.30;99.90;;;;;;4261238;33;20085;-75
2022/09/09 00:16:52;;;;;;;9.55;0.98;;;15.20;99.90;;;;;;4261765;33;20080;-75
2022/09/09 00:19:29;;;;;;;0.60;0.60;;;15.20;99.90;;;;;;4261069;33;20085;-75
2022/09/09 00:22:16;;;;;;;5.95;1.67;;;15.10;99.90;;;;;;4263278;33;20080;-75
2022/09/09 00:25:04;;;;;;;0.60;0.60;;;15.10;99.90;;;;;;4252417;33;20561;-75
2022/09/09 00:27:47;;;;;;;0.77;0.75;;;15.10;99.90;;;;;;4248528;33;20110;-75
2022/09/09 00:30:19;;;;;;;0.75;0.70;;;15.10;99.90;;;;;;4246117;33;20161;-75
2022/09/09 00:32:46;;;;;;;0.60;0.60;;;15.10;99.90;;;;;;4263150;33;20149;-73
2022/09/09 00:35:22;;;;;;;0.40;0.40;;;15.20;99.90;;;;;;4261801;33;20068;-73
2022/09/09 00:37:52;;;;;;;0.40;0.40;;;15.10;99.90;;;;;;4262898;33;20575;-74
2022/09/09 00:40:33;;;;;;;0.40;0.40;;;15.10;99.90;;;;;;4261536;33;20073;-74
2022/09/09 00:43:08;;;;;;;0.40;0.40;;;15.10;99.90;;;;;;4252160;33;20082;-73
2022/09/09 00:45:52;;;;;;;0.50;0.50;;;15.00;99.90;;;;;;4263107;33;20500;-75
2022/09/09 00:48:18;;;;;;;0.52;0.52;;;15.00;99.90;;;;;;4263490;33;20181;-75
2022/09/09 00:50:55;;;;;;;0.50;0.50;;;14.90;99.90;;;;;;4262424;33;20085;-73
2022/09/09 00:53:31;;;;;;;0.65;0.65;;;14.90;99.90;;;;;;4264779;33;20415;-73
2022/09/09 00:56:26;;;;;;;0.45;0.45;;;14.80;99.90;;;;;;4262957;33;20443;-73
2022/09/09 00:59:10;;;;;;;2.00;0.45;;;14.80;99.90;;;;;;4242578;33;20773;-75
2022/09/09 01:01:36;;;;;;;0.73;0.70;;;14.70;99.90;;;;;;4259528;33;20135;-75
2022/09/09 01:04:10;;;;;;;0.47;0.47;;;14.80;99.90;;;;;;4262235;33;21474;-75
2022/09/09 01:06:38;;;;;;;0.50;0.50;;;14.80;99.90;;;;;;4261741;33;20065;-75
2022/09/09 01:09:27;;;;;;;0.40;0.40;;;14.90;99.90;;;;;;4262185;33;20085;-75
2022/09/09 01:12:18;;;;;;;0.50;0.50;;;14.90;99.90;;;;;;4260944;33;20087;-75
2022/09/09 01:14:48;;;;;;;1.23;0.65;;;14.80;99.90;;;;;;4250756;33;20068;-75
2022/09/09 01:17:24;;;;;;;2.17;1.37;;;14.80;99.90;;;;;;4262265;33;20069;-75
2022/09/09 01:20:14;;;;;;;0.40;0.40;;;14.70;99.90;;;;;;4263610;33;20073;-75
2022/09/09 01:23:19;;;;;;;0.70;0.70;;;14.70;99.90;;;;;;4251700;33;20069;-75
2022/09/09 01:26:11;;;;;;;0.32;0.32;;;14.70;99.90;;;;;;4244116;33;20171;-75
2022/09/09 01:28:38;;;;;;;0.40;0.40;;;14.60;99.90;;;;;;4239189;33;20069;-75
2022/09/09 01:31:06;;;;;;;0.82;0.70;;;14.60;99.90;;;;;;4258899;33;20057;-75
2022/09/09 01:33:32;;;;;;;0.68;0.68;;;14.60;99.90;;;;;;4264316;33;20642;-73
2022/09/09 01:36:07;;;;;;;0.50;0.50;;;14.50;99.90;;;;;;4263051;33;20085;-74
2022/09/09 01:38:34;;;;;;;1.75;0.80;;;14.50;99.90;;;;;;4265440;33;20116;-74
2022/09/09 01:41:00;;;;;;;0.60;0.60;;;14.50;99.90;;;;;;4264596;33;20049;-74
2022/09/09 01:43:27;;;;;;;0.60;0.60;;;14.70;99.90;;;;;;4264074;33;20077;-74
2022/09/09 01:45:55;;;;;;;0.52;0.52;;;14.70;99.90;;;;;;4264389;33;20412;-74
2022/09/09 01:48:23;;;;;;;0.50;0.50;;;14.60;99.90;;;;;;4263758;33;20730;-74
2022/09/09 01:50:49;;;;;;;0.88;0.50;;;14.50;99.90;;;;;;4264516;33;20523;-74
2022/09/09 01:53:16;;;;;;;0.30;0.30;;;14.50;99.90;;;;;;4264518;33;20053;-74
2022/09/09 01:56:04;;;;;;;0.40;0.40;;;14.50;99.90;;;;;;4264335;33;20057;-74
2022/09/09 01:58:57;;;;;;;0.95;0.90;;;14.60;99.90;;;;;;4246234;33;20119;-74
2022/09/09 02:01:41;;;;;;;0.95;0.65;;;14.60;99.90;;;;;;4248236;33;20160;-74
2022/09/09 02:04:20;;;;;;;0.50;0.50;;;14.70;99.90;;;;;;4263600;33;20362;-74
2022/09/09 02:06:52;;;;;;;1.17;1.08;;;14.70;99.90;;;;;;4263837;33;20069;-74
2022/09/09 02:09:22;;;;;;;0.50;0.50;;;14.70;99.90;;;;;;4264656;33;20073;-74
2022/09/09 02:11:51;;;;;;;1.87;0.70;;;14.60;99.90;;;;;;4264904;33;20085;-74
2022/09/09 02:14:23;;;;;;;1.65;0.60;;;14.50;99.90;;;;;;4262129;33;20057;-74
2022/09/09 02:16:54;;;;;;;0.50;0.50;;;14.60;99.90;;;;;;4264952;33;20109;-74
2022/09/09 02:19:27;;;;;;;2.83;0.80;;;14.60;99.90;;;;;;4265285;33;20133;-76
2022/09/09 02:21:55;;;;;;;0.60;0.60;;;14.60;99.90;;;;;;4263967;33;20085;-74
2022/09/09 02:24:21;;;;;;;1.45;0.60;;;14.50;99.90;;;;;;4262232;33;20593;-76
2022/09/09 02:26:53;;;;;;;0.30;0.30;;;14.60;99.90;;;;;;4263250;33;20069;-75
2022/09/09 02:29:27;;;;;;;1.33;1.23;;;14.50;99.90;;;;;;4238405;33;20122;-76
2022/09/09 02:31:58;;;;;;;0.82;0.80;;;14.60;99.90;;;;;;4263978;33;20065;-75
2022/09/09 02:34:24;;;;;;;0.50;0.50;;;14.60;99.90;;;;;;4263416;33;20072;-76
2022/09/09 02:38:01;;;;;;;0.40;0.40;;;14.70;99.90;;;;;;4262589;33;20169;-76
2022/09/09 02:40:15;;;;;;;0.40;0.40;;;14.70;99.90;;;;;;4244257;33;20093;-75
2022/09/09 02:42:43;;;;;;;0.32;0.32;;;14.70;99.90;;;;;;4264866;33;20101;-75
2022/09/09 02:45:11;;;;;;;0.50;0.50;;;14.50;99.90;;;;;;4261739;33;20082;-75
2022/09/09 02:47:48;;;;;;;0.62;0.50;;;14.50;99.90;;;;;;4264788;33;20569;-75
2022/09/09 02:50:25;;;;;;;0.98;0.90;;;14.40;99.90;;;;;;4263647;33;20126;-76
2022/09/09 02:52:58;;;;;;;0.40;0.40;;;14.40;99.90;;;;;;4262959;33;21393;-75
2022/09/09 02:55:36;;;;;;;2.10;1.10;;;14.40;99.90;;;;;;4262038;33;20097;-75
2022/09/09 02:58:06;;;;;;;0.65;0.65;;;14.50;99.90;;;;;;4251036;33;20065;-75
2022/09/09 03:00:32;;;;;;;0.57;0.57;;;14.60;99.90;;;;;;4247666;33;20522;-75
2022/09/09 03:02:58;;;;;;;0.40;0.40;;;14.70;99.90;;;;;;4262497;33;20339;-75
2022/09/09 03:05:24;;;;;;;2.08;0.98;;;14.70;99.90;;;;;;4262520;33;20161;-75
2022/09/09 03:07:50;;;;;;;0.30;0.30;;;14.60;99.90;;;;;;4261233;33;20130;-75
2022/09/09 03:10:16;;;;;;;0.50;0.50;;;14.50;99.90;;;;;;4261867;33;20160;-75
2022/09/09 03:12:42;;;;;;;0.65;0.65;;;14.40;99.90;;;;;;4262296;33;20069;-75
2022/09/09 03:15:08;;;;;;;0.40;0.40;;;14.40;99.90;;;;;;4262050;33;20077;-75
2022/09/09 03:17:34;;;;;;;1.45;0.70;;;14.40;99.90;;;;;;4261915;33;20074;-75
2022/09/09 03:20:01;;;;;;;0.30;0.30;;;14.40;99.90;;;;;;4264863;33;20085;-75
2022/09/09 03:22:26;;;;;;;0.60;0.60;;;14.40;99.90;;;;;;4262227;33;20562;-75
2022/09/09 03:24:52;;;;;;;0.40;0.40;;;14.50;99.90;;;;;;4263111;33;20081;-75
2022/09/09 03:27:19;;;;;;;0.75;0.62;;;14.50;99.90;;;;;;4259384;33;20529;-75
2022/09/09 03:29:45;;;;;;;0.40;0.40;;;14.50;99.90;;;;;;4240284;33;20073;-75
2022/09/09 03:32:10;;;;;;;0.40;0.40;;;14.50;99.90;;;;;;4262453;33;20136;-75
2022/09/09 03:34:38;;;;;;;0.50;0.50;;;14.50;99.90;;;;;;4262471;33;20109;-75
2022/09/09 03:37:05;;;;;;;0.50;0.50;;;14.50;99.90;;;;;;4262212;33;20260;-75
2022/09/09 03:39:30;;;;;;;0.40;0.40;;;14.50;99.90;;;;;;4262429;33;20089;-75
2022/09/09 03:41:56;;;;;;;3.83;0.60;;;14.50;99.90;;;;;;4261779;33;20441;-75
2022/09/09 03:44:21;;;;;;;29.75;1.00;;;14.50;99.90;;;;;;4263401;33;20082;-75
2022/09/09 03:46:47;;;;;;;0.40;0.40;;;14.50;99.90;;;;;;4261427;33;20139;-75
2022/09/09 03:49:13;;;;;;;0.32;0.32;;;14.40;99.90;;;;;;4262167;33;20136;-75
2022/09/09 03:51:38;;;;;;;0.43;0.43;;;14.40;99.90;;;;;;4262025;33;20064;-75
2022/09/09 03:54:07;;;;;;;0.30;0.30;;;14.50;99.90;;;;;;4261409;33;20112;-75
2022/09/09 03:56:33;;;;;;;2.33;0.70;;;14.50;99.90;;;;;;4261253;33;20105;-75
2022/09/09 03:58:59;;;;;;;0.60;0.60;;;14.40;99.90;;;;;;4240925;33;20096;-74
2022/09/09 04:01:24;;;;;;;1.05;0.73;;;14.40;99.90;;;;;;4258784;33;20076;-74
2022/09/09 04:03:50;;;;;;;0.40;0.40;;;14.40;99.90;;;;;;4263367;33;20068;-74
2022/09/09 04:06:17;;;;;;;1.05;0.95;;;14.40;99.90;;;;;;4262225;33;20120;-76
2022/09/09 04:08:42;;;;;;;0.40;0.40;;;14.40;99.90;;;;;;4259055;33;20129;-76
2022/09/09 04:11:08;;;;;;;0.55;0.55;;;14.50;99.90;;;;;;4262044;33;20084;-76
2022/09/09 04:13:35;;;;;;;2.33;0.77;;;14.40;99.90;;;;;;4262260;33;20128;-76
2022/09/09 04:16:01;;;;;;;0.37;0.37;;;14.20;99.90;;;;;;4261971;33;20074;-76
2022/09/09 04:18:28;;;;;;;0.32;0.32;;;14.10;99.90;;;;;;4260146;33;20097;-75
2022/09/09 04:20:54;;;;;;;0.40;0.40;;;14.10;99.90;;;;;;4258797;33;20089;-75
2022/09/09 04:23:20;;;;;;;0.60;0.60;;;14.20;99.90;;;;;;4213029;33;20589;-75
2022/09/09 04:25:49;;;;;;;0.55;0.55;;;14.30;99.90;;;;;;4202044;33;20604;-76
2022/09/09 04:28:16;;;;;;;0.30;0.30;;;14.30;99.90;;;;;;4213032;33;20453;-75
2022/09/09 04:30:42;;;;;;;0.62;0.52;;;14.40;99.90;;;;;;4217343;33;20498;-75
2022/09/09 04:33:09;;;;;;;0.40;0.40;;;14.40;99.90;;;;;;4262994;33;20105;-75
2022/09/09 04:35:35;;;;;;;0.32;0.32;;;14.30;99.90;;;;;;4261666;33;20412;-75
2022/09/09 04:38:02;;;;;;;0.60;0.60;;;14.40;99.90;;;;;;4261729;33;20073;-75
2022/09/09 04:40:29;;;;;;;0.45;0.45;;;14.40;99.90;;;;;;4261240;33;20060;-75
2022/09/09 04:42:55;;;;;;;0.40;0.40;;;14.40;99.90;;;;;;4261248;33;20077;-75
2022/09/09 04:45:20;;;;;;;0.57;0.57;;;14.20;99.90;;;;;;4260574;33;20550;-75
2022/09/09 04:47:46;;;;;;;0.35;0.35;;;14.20;99.90;;;;;;4259707;33;20086;-75
2022/09/09 04:50:12;;;;;;;0.30;0.30;;;14.20;99.90;;;;;;4262587;33;20096;-75
2022/09/09 04:52:37;;;;;;;0.40;0.40;;;14.20;99.90;;;;;;4231882;33;20242;-75
2022/09/09 04:55:03;;;;;;;0.40;0.40;;;14.30;99.90;;;;;;4233889;33;20064;-75
2022/09/09 04:57:31;;;;;;;0.32;0.32;;;14.30;99.90;;;;;;4258049;33;20100;-75
2022/09/09 04:59:57;;;;;;;0.40;0.40;;;14.30;99.90;;;;;;4240959;33;20104;-75
2022/09/09 05:02:22;;;;;;;0.60;0.60;;;14.30;99.90;;;;;;4243462;33;20487;-75
2022/09/09 05:04:49;;;;;;;2.17;0.82;;;14.20;99.90;;;;;;4219287;33;20144;-75
2022/09/09 05:07:15;;;;;;;0.52;0.52;;;14.20;99.90;;;;;;4209665;33;20131;-75
2022/09/09 05:09:40;;;;;;;0.40;0.40;;;14.30;99.90;;;;;;4216371;33;20509;-75
2022/09/09 05:12:06;;;;;;;1.45;0.47;;;14.20;99.90;;;;;;4228773;33;20140;-75
2022/09/09 05:14:31;;;;;;;0.50;0.50;;;14.30;99.90;;;;;;4239530;33;20061;-75
2022/09/09 05:16:57;;;;;;;0.47;0.47;;;14.30;99.90;;;;;;4243386;33;21057;-75
2022/09/09 05:19:23;;;;;;;0.40;0.40;;;14.20;99.90;;;;;;4154981;33;20421;-75
2022/09/09 05:21:49;;;;;;;0.52;0.52;;;14.20;99.90;;;;;;4140895;33;20259;-76
2022/09/09 05:24:16;;;;;;;0.22;0.22;;;14.20;99.90;;;;;;4148731;33;20329;-76
2022/09/09 05:26:43;;;;;;;0.50;0.50;;;14.20;99.90;;;;;;4184490;33;20089;-75
2022/09/09 05:29:08;;;;;;;3.87;0.65;;;14.20;99.90;;;;;;4197778;33;20492;-75
2022/09/09 05:31:34;;;;;;;0.40;0.40;;;14.10;99.90;;;;;;4161957;33;20483;-74
2022/09/09 05:34:00;;;;;;;0.40;0.40;;;14.20;99.90;;;;;;4179772;33;20421;-74
2022/09/09 05:36:25;;;;;;;0.52;0.52;;;14.20;99.90;;;;;;4171132;33;20308;-74
2022/09/09 05:38:53;;;;;;;0.60;0.60;;;14.20;99.90;;;;;;4212188;33;20203;-76
2022/09/09 05:41:19;;;;;;;0.40;0.40;;;14.30;99.90;;;;;;4218359;33;20615;-76
2022/09/09 05:43:48;;;;;;;0.30;0.30;;;14.20;99.90;;;;;;4242773;33;20197;-74
2022/09/09 05:46:16;;;;;;;0.43;0.43;;;14.30;99.90;;;;;;4233940;33;20170;-75
2022/09/09 05:48:46;;;;;;;0.50;0.50;;;14.40;99.90;;;;;;4232890;33;20161;-74
2022/09/09 05:51:15;;;;;;;0.75;0.62;;;14.40;99.90;;;;;;4231996;33;20112;-74
2022/09/09 05:53:41;;;;;;;0.57;0.57;;;14.40;99.90;;;;;;4239503;33;20274;-76
2022/09/09 05:56:10;;;;;;;0.52;0.52;;;14.50;99.90;;;;;;4242017;33;20084;-76
2022/09/09 05:58:36;;;;;;;0.30;0.30;;;14.50;99.90;;;;;;4228042;33;20287;-76
2022/09/09 06:01:07;;;;;;;0.37;0.37;;;14.60;99.90;;;;;;4200405;33;21136;-77
2022/09/09 06:03:34;;;;;;;1.25;0.90;;;14.70;99.90;;;;;;4215779;33;20511;-76
2022/09/09 06:06:02;;;;;;;0.50;0.50;;;14.70;99.90;;;;;;4210487;33;20097;-76
2022/09/09 06:08:28;;;;;;;0.50;0.50;;;14.70;99.90;;;;;;4227902;33;20574;-76
2022/09/09 06:11:01;;;;;;;0.40;0.40;;;14.80;99.90;;;;;;4222778;33;20112;-75
2022/09/09 06:13:27;;;;;;;0.30;0.30;;;14.80;99.90;;;;;;4232613;33;20096;-75
2022/09/09 06:15:53;;;;;;;0.40;0.40;;;14.90;99.90;;;;;;4233552;33;21818;-76
2022/09/09 06:18:19;;;;;;;0.40;0.40;;;14.90;99.90;;;;;;4241951;33;20621;-75
2022/09/09 06:21:04;;;;;;;0.50;0.50;;;15.00;99.90;;;;;;4230398;33;20403;-76
2022/09/09 06:23:30;;;;;;;0.35;0.35;;;15.10;99.90;;;;;;4231523;33;20142;-76
2022/09/09 06:26:14;;;;;;;0.50;0.50;;;15.10;99.90;;;;;;4231814;33;20069;-75
2022/09/09 06:28:40;;;;;;;0.40;0.40;;;15.20;99.90;;;;;;4239807;33;22145;-75
2022/09/09 06:31:09;;;;;;;0.50;0.50;;;15.30;99.90;;;;;;4214907;33;20293;-75
2022/09/09 06:33:40;;;;;;;0.40;0.40;;;15.20;99.90;;;;;;4230200;33;20186;-75
2022/09/09 06:36:09;;;;;;;0.62;0.62;;;15.20;99.90;;;;;;4230472;33;20154;-75
2022/09/09 06:38:34;;;;;;;2.33;0.88;;;15.20;99.90;;;;;;4235425;33;20077;-74
2022/09/09 06:41:00;;;;;;;0.50;0.50;;;15.10;99.90;;;;;;4224509;33;20401;-74
2022/09/09 06:43:26;;;;;;;0.60;0.60;;;15.20;99.90;;;;;;4232735;33;20181;-75
2022/09/09 06:45:59;;;;;;;0.43;0.43;;;15.20;99.90;;;;;;4232482;33;20105;-76
2022/09/09 06:48:26;;;;;;;1.90;0.73;;;15.30;99.90;;;;;;4225926;33;20097;-76
2022/09/09 06:51:01;;;;;;;1.45;1.20;;;15.40;99.90;;;;;;4234552;33;20514;-75
2022/09/09 06:53:27;;;;;;;0.30;0.30;;;15.40;99.90;;;;;;4232790;33;20492;-75
2022/09/09 06:55:53;;;;;;;0.40;0.40;;;15.50;99.90;;;;;;4227310;33;20093;-75
2022/09/09 06:58:18;;;;;;;0.70;0.70;;;15.60;99.90;;;;;;4236018;33;20438;-75
2022/09/09 07:00:44;;;;;;;1.15;1.05;;;15.70;99.90;;;;;;4216445;33;20242;-76
2022/09/09 07:03:10;;;;;;;0.88;0.80;;;15.80;99.90;;;;;;4215681;33;20587;-76
2022/09/09 07:05:36;;;;;;;1.23;0.50;;;15.90;99.90;;;;;;4227469;33;20074;-75
2022/09/09 07:08:02;;;;;;;1.27;0.57;;;16.00;99.90;;;;;;4232464;33;20093;-77
2022/09/09 07:10:27;;;;;;;0.75;0.70;;;16.00;99.90;;;;;;4229747;33;20573;-76
2022/09/09 07:12:53;;;;;;;0.50;0.50;;;16.10;99.90;;;;;;4228949;33;20084;-76
2022/09/09 07:15:19;;;;;;;0.50;0.50;;;16.20;99.90;;;;;;4230998;33;20636;-76
2022/09/09 07:17:46;;;;;;;0.30;0.30;;;16.20;99.90;;;;;;4221374;33;20106;-76
2022/09/09 07:20:12;;;;;;;0.40;0.40;;;16.30;99.90;;;;;;4226277;33;20122;-77
2022/09/09 07:22:37;;;;;;;0.35;0.35;;;16.40;99.90;;;;;;4226109;33;20089;-77
2022/09/09 07:25:03;;;;;;;0.45;0.45;;;16.50;99.90;;;;;;4221493;33;20590;-77
2022/09/09 07:27:30;;;;;;;0.40;0.40;;;16.70;99.90;;;;;;4236009;33;20815;-77
2022/09/09 07:29:55;;;;;;;2.33;0.70;;;16.80;99.90;;;;;;4211822;33;20622;-77
2022/09/09 07:32:21;;;;;;;20.52;0.60;;;16.90;99.90;;;;;;4198733;33;20186;-74
2022/09/09 07:34:46;;;;;;;0.30;0.30;;;16.80;99.90;;;;;;4207100;33;20609;-75
2022/09/09 07:37:13;;;;;;;0.40;0.40;;;16.90;99.90;;;;;;4220525;33;20077;-76
2022/09/09 07:39:39;;;;;;;0.30;0.30;;;17.10;99.90;;;;;;4233288;33;20242;-76
2022/09/09 07:42:05;;;;;;;0.20;0.20;;;17.30;99.90;;;;;;4228280;33;20176;-74
2022/09/09 07:44:34;;;;;;;1.20;0.50;;;17.40;99.90;;;;;;4236355;33;20262;-75
2022/09/09 07:47:01;;;;;;;1.35;0.75;;;17.60;99.90;;;;;;4223536;33;20101;-75
2022/09/09 07:49:26;;;;;;;0.47;0.47;;;17.60;99.90;;;;;;4204391;33;20120;-74
2022/09/09 07:51:52;;;;;;;0.30;0.30;;;17.70;99.90;;;;;;4194416;33;21209;-73
2022/09/09 07:54:20;;;;;;;0.32;0.32;;;17.80;99.90;;;;;;4209760;33;20100;-74
2022/09/09 07:56:46;;;;;;;0.37;0.37;;;18.00;99.90;;;;;;4219792;33;20525;-74
2022/09/09 07:59:13;;;;;;;0.30;0.30;;;18.10;99.90;;;;;;4219146;33;20333;-73
2022/09/09 08:01:43;;;;;;;1.55;0.95;;;18.20;99.90;;;;;;4215658;33;20396;-73
2022/09/09 08:04:16;;;;;;;0.47;0.37;;;18.30;99.90;;;;;;4214665;33;21070;-73
2022/09/09 08:06:44;;;;;;;0.50;0.50;;;18.20;99.90;;;;;;4224191;33;20163;-74
2022/09/09 08:09:10;;;;;;;0.30;0.30;;;18.20;99.90;;;;;;4225864;33;20093;-74
2022/09/09 08:11:37;;;;;;;0.47;0.47;;;18.20;99.90;;;;;;4227230;33;20623;-74
2022/09/09 08:14:03;;;;;;;0.40;0.40;;;18.30;99.90;;;;;;4228357;33;20995;-73
2022/09/09 08:16:32;;;;;;;0.30;0.30;;;18.30;99.90;;;;;;4232890;33;20089;-73
2022/09/09 08:18:57;;;;;;;0.65;0.65;;;18.20;99.90;;;;;;4217648;33;20089;-73
2022/09/09 08:21:27;;;;;;;0.30;0.30;;;18.20;99.90;;;;;;4219424;33;20088;-73
2022/09/09 08:23:54;;;;;;;0.40;0.40;;;18.10;99.90;;;;;;4221414;33;20762;-74
2022/09/09 08:26:23;;;;;;;0.35;0.35;;;18.10;99.90;;;;;;4208695;33;20549;-74
2022/09/09 08:28:51;;;;;;;0.40;0.40;;;18.20;99.90;;;;;;4215113;33;21049;-72
2022/09/09 08:31:21;;;;;;;0.30;0.30;;;18.30;99.90;;;;;;4220058;33;20066;-73
2022/09/09 08:33:47;;;;;;;0.77;0.77;;;18.40;99.90;;;;;;4209025;33;93986;-73
2022/09/09 08:36:15;;;;;;;0.35;0.35;;;18.40;99.90;;;;;;4210408;33;21257;-74
2022/09/09 08:38:42;;;;;;;0.60;0.60;;;18.40;99.90;;;;;;4215214;33;20846;-73
2022/09/09 08:41:32;;;;;;;0.37;0.37;;;18.40;99.90;;;;;;4214149;33;20158;-74
2022/09/09 08:44:11;;;;;;;0.30;0.30;;;18.40;99.90;;;;;;4203272;33;20827;-73
2022/09/09 08:47:06;;;;;;;0.50;0.50;;;18.40;99.90;;;;;;4216007;33;20105;-73
2022/09/09 08:49:55;;;;;;;1.37;0.98;;;18.40;99.90;;;;;;4204516;33;20080;-73
2022/09/09 08:52:27;;;;;;;1.35;0.90;;;18.50;99.90;;;;;;4219214;33;20727;-73
2022/09/09 08:54:55;;;;;;;0.40;0.40;;;18.50;99.90;;;;;;4211615;33;20267;-74
2022/09/09 08:57:26;;;;;;;1.65;0.43;;;18.50;99.90;;;;;;4216268;33;20102;-74
2022/09/09 08:59:55;;;;;;;7.47;1.67;;;18.50;99.90;;;;;;4211811;33;20087;-74
2022/09/09 09:02:32;;;;;;;0.52;0.52;;;18.50;99.90;;;;;;4214499;33;20081;-73
2022/09/09 09:05:09;;;;;;;0.30;0.30;;;18.50;99.90;;;;;;4210116;33;20092;-73
2022/09/09 09:08:06;;;;;;;0.50;0.50;;;18.70;99.90;;;;;;4210436;33;20125;-74
2022/09/09 09:10:44;;;;;;;0.37;0.37;;;18.70;99.90;;;;;;4207147;33;20707;-73
2022/09/09 09:13:15;;;;;;;0.30;0.30;;;18.80;99.90;;;;;;4216368;33;20118;-74
2022/09/09 09:15:43;;;;;;;0.35;0.35;;;18.70;99.90;;;;;;4217178;33;20300;-74
2022/09/09 09:18:12;;;;;;;0.32;0.32;;;18.90;99.90;;;;;;4210323;33;20084;-73
2022/09/09 09:20:59;;;;;;;0.60;0.60;;;19.00;99.90;;;;;;4208648;33;20227;-75
2022/09/09 09:23:29;;;;;;;1.02;0.95;;;19.20;99.90;;;;;;4202823;33;20104;-73
2022/09/09 09:25:59;;;;;;;0.73;0.70;;;19.40;99.90;;;;;;4221469;33;20105;-73
2022/09/09 09:28:29;;;;;;;0.30;0.30;;;19.70;99.90;;;;;;4219857;33;20077;-73
2022/09/09 09:31:11;;;;;;;0.40;0.40;;;19.80;99.90;;;;;;4232103;33;20057;-73
2022/09/09 09:33:46;;;;;;;7.50;0.40;;;20.10;99.90;;;;;;4217023;33;20093;-73
2022/09/09 09:36:15;;;;;;;0.50;0.50;;;20.20;99.90;;;;;;4235883;33;20100;-73
2022/09/09 09:38:56;;;;;;;0.30;0.30;;;20.40;99.90;;;;;;4239205;33;20214;-74
2022/09/09 09:41:30;;;;;;;;;;;20.50;99.90;;;;;;4233805;33;20579;-73
2022/09/09 09:43:55;;;;;;;0.30;0.30;;;20.70;99.90;;;;;;4233300;33;20119;-73
2022/09/09 09:46:23;;;;;;;0.30;0.30;;;20.80;99.90;;;;;;4242851;33;20073;-73
2022/09/09 09:49:05;;;;;;;0.85;0.65;;;21.00;99.90;;;;;;4237716;33;20109;-75
2022/09/09 09:51:32;;;;;;;0.20;0.20;;;21.10;99.90;;;;;;4228933;33;20128;-75
2022/09/09 09:54:15;;;;;;;0.30;0.30;;;21.10;99.90;;;;;;4246752;33;20065;-75
2022/09/09 09:56:42;;;;;;;0.30;0.30;;;21.20;99.90;;;;;;4239370;33;20066;-75
2022/09/09 09:59:28;;;;;;;0.30;0.30;;;21.20;99.90;;;;;;4236647;33;20088;-75
2022/09/09 10:01:54;;;;;;;12.85;0.50;;;21.20;99.90;;;;;;4243388;33;20133;-73
2022/09/09 10:04:23;;;;;;;0.30;0.30;;;21.20;99.90;;;;;;4237562;33;20121;-76
2022/09/09 10:06:50;;;;;;;0.25;0.25;;;21.20;99.90;;;;;;4235102;33;20093;-75
2022/09/09 10:09:32;;;;;;;0.30;0.30;;;21.10;99.90;;;;;;4237783;33;20477;-74
2022/09/09 10:12:25;;;;;;;0.22;0.22;;;21.20;99.90;;;;;;4235780;33;20205;-76
2022/09/09 10:15:13;;;;;;;0.32;0.32;;;21.40;99.90;;;;;;4235570;33;20654;-74
2022/09/09 10:18:04;;;;;;;0.20;0.20;;;21.70;99.90;;;;;;4226657;33;21246;-73
2022/09/09 10:20:51;;;;;;;0.30;0.30;;;21.60;99.90;;;;;;4219148;33;20105;-77
2022/09/09 10:23:48;;;;;;;0.40;0.40;;;21.50;99.90;;;;;;4223630;33;20104;-77
2022/09/09 10:26:33;;;;;;;17.33;0.80;;;21.50;99.90;;;;;;4230730;33;20141;-76
2022/09/09 10:29:28;;;;;;;0.50;0.50;;;21.50;99.90;;;;;;4230296;33;20183;-76
2022/09/09 10:32:05;;;;;;;0.15;0.15;;;21.40;99.90;;;;;;4222089;33;20491;-75
2022/09/09 10:35:01;;;;;;;0.30;0.30;;;21.50;99.90;;;;;;4237005;33;20108;-75
2022/09/09 10:37:43;;;;;;;0.30;0.30;;;21.80;99.90;;;;;;4229094;33;20089;-76
2022/09/09 10:40:26;;;;;;;8.68;0.82;;;21.80;99.90;;;;;;4237825;33;20103;-77
2022/09/09 10:42:55;;;;;;;0.20;0.20;;;21.70;99.90;;;;;;4239990;33;20093;-77
2022/09/09 10:45:34;;;;;;;0.40;0.40;;;21.70;99.90;;;;;;4246758;33;20369;-78
2022/09/09 10:48:30;;;;;;;0.30;0.30;;;21.80;99.90;;;;;;4234981;33;20097;-76
2022/09/09 10:51:17;;;;;;;1.02;0.37;;;22.00;99.90;;;;;;4221157;33;20711;-75
2022/09/09 10:54:10;;;;;;;0.20;0.20;;;22.30;99.90;;;;;;4229010;33;20679;-77
2022/09/09 10:56:36;;;;;;;0.20;0.20;;;22.80;99.90;;;;;;4212279;33;20085;-78
2022/09/09 10:59:10;;;;;;;2.30;0.37;;;23.30;99.90;;;;;;4223145;33;20589;-76
2022/09/09 11:01:49;;;;;;;0.20;0.20;;;23.10;99.90;;;;;;4233390;33;20599;-77
2022/09/09 11:04:22;;;;;;;0.10;0.10;;;23.10;99.90;;;;;;4235210;33;20081;-77
2022/09/09 11:06:53;;;;;;;0.40;0.40;;;23.20;99.90;;;;;;4238724;33;20132;-78
2022/09/09 11:09:23;;;;;;;0.20;0.20;;;23.50;99.90;;;;;;4239425;33;20354;-78
2022/09/09 11:11:54;;;;;;;0.20;0.20;;;23.90;99.90;;;;;;4245523;33;20516;-78
2022/09/09 11:14:29;;;;;;;0.20;0.20;;;24.10;99.90;;;;;;4252159;33;20120;-78
2022/09/09 11:17:01;;;;;;;0.17;0.17;;;24.20;99.90;;;;;;4250695;33;20073;-78
2022/09/09 11:19:34;;;;;;;0.20;0.20;;;24.50;99.90;;;;;;4248188;33;20890;-79
2022/09/09 11:22:07;;;;;;;0.15;0.15;;;24.30;99.90;;;;;;4249925;33;20065;-78
2022/09/09 11:24:41;;;;;;;1.00;0.32;;;24.60;99.90;;;;;;4248545;33;21033;-78
2022/09/09 11:27:52;;;;;;;0.20;0.20;;;24.80;99.90;;;;;;4246367;33;20121;-78
2022/09/09 11:30:24;;;;;;;22.27;0.52;;;24.30;99.90;;;;;;4222363;33;20116;-79
2022/09/09 11:33:26;;;;;;;0.20;0.20;;;23.90;99.90;;;;;;4244688;33;20500;-78
2022/09/09 11:36:14;;;;;;;3.08;1.45;;;24.40;99.90;;;;;;4233471;33;20100;-78
2022/09/09 11:38:52;;;;;;;0.10;0.10;;;24.70;99.90;;;;;;4234398;33;20482;-78
2022/09/09 11:41:20;;;;;;;0.10;0.10;;;24.70;99.90;;;;;;4232039;33;20216;-78
2022/09/09 11:43:51;;;;;;;0.10;0.10;;;24.90;99.90;;;;;;4224086;33;20231;-78
2022/09/09 11:46:20;;;;;;;0.55;0.45;;;25.00;99.90;;;;;;4217982;33;20188;-78
2022/09/09 11:49:00;;;;;;;0.10;0.10;;;25.20;99.90;;;;;;4228561;33;20133;-78
2022/09/09 11:51:29;;;;;;;0.10;0.10;;;24.90;99.90;;;;;;4225362;33;20137;-77
2022/09/09 11:53:58;;;;;;;0.15;0.15;;;24.70;99.90;;;;;;4219780;33;20112;-78
2022/09/09 11:56:27;;;;;;;0.50;0.50;;;24.70;99.90;;;;;;4228158;33;20117;-76
2022/09/09 11:59:04;;;;;;;0.15;0.15;;;24.90;99.90;;;;;;4226120;33;20077;-77
2022/09/09 12:01:38;;;;;;;0.03;0.03;;;25.30;99.90;;;;;;4226029;33;20117;-77
2022/09/09 12:04:14;;;;;;;0.10;0.10;;;25.80;99.90;;;;;;4227037;33;20091;-77
2022/09/09 12:06:45;;;;;;;0.30;0.30;;;25.90;99.90;;;;;;4227542;33;20092;-78
2022/09/09 12:09:24;;;;;;;0.20;0.20;;;26.20;99.90;;;;;;4237119;33;20085;-78
2022/09/09 12:11:51;;;;;;;0.75;0.22;;;26.60;99.90;;;;;;4240280;33;20092;-78
2022/09/09 12:14:36;;;;;;;0.55;0.15;;;27.20;99.90;;;;;;4233549;33;20190;-79
2022/09/09 12:17:24;;;;;;;0.10;0.10;;;27.30;99.70;;;;;;4238090;33;21244;-79
2022/09/09 12:20:12;;;;;;;0.10;0.10;;;27.20;99.40;;;;;;4233294;33;20092;-79
2022/09/09 12:22:51;;;;;;;0.10;0.10;;;27.50;98.10;;;;;;4229927;33;20841;-78
2022/09/09 12:25:41;;;;;;;0.10;0.10;;;27.50;98.00;;;;;;4245797;33;20084;-78
2022/09/09 12:28:27;;;;;;;0.10;0.10;;;27.20;98.00;;;;;;4244386;33;20081;-78
2022/09/09 12:31:04;;;;;;;0.08;0.08;;;26.60;98.50;;;;;;4227181;33;20104;-78
2022/09/09 12:33:35;;;;;;;0.10;0.10;;;26.40;98.70;;;;;;4220760;33;20094;-79
2022/09/09 12:36:04;;;;;;;0.10;0.10;;;25.90;99.60;;;;;;4233172;33;20759;-77
2022/09/09 12:38:34;;;;;;;0.10;0.10;;;25.60;99.90;;;;;;4232730;33;20101;-77
2022/09/09 12:41:00;;;;;;;0.10;0.10;;;25.30;99.90;;;;;;4248044;33;20222;-77
2022/09/09 12:43:27;;;;;;;0.17;0.17;;;25.10;99.90;;;;;;4242071;33;20580;-77
2022/09/09 12:45:58;;;;;;;2.30;0.22;;;24.80;99.90;;;;;;4243092;33;20097;-77
2022/09/09 12:48:36;;;;;;;0.10;0.10;;;24.60;99.90;;;;;;4249101;33;20207;-77
2022/09/09 12:51:07;;;;;;;2.40;0.32;;;24.40;99.90;;;;;;4251475;33;20090;-78
2022/09/09 12:53:36;;;;;;;0.10;0.10;;;24.20;99.90;;;;;;4251577;33;20113;-77
2022/09/09 12:56:08;;;;;;;0.20;0.20;;;23.80;99.90;;;;;;4252114;33;20518;-77
2022/09/09 12:58:35;;;;;;;0.30;0.30;;;23.60;99.90;;;;;;4250593;33;20053;-78
2022/09/09 13:01:04;;;;;;;18.00;0.37;;;23.60;99.90;;;;;;4252882;33;20085;-78
2022/09/09 13:03:32;;;;;;;0.20;0.20;;;23.60;99.90;;;;;;4243599;33;20069;-77
2022/09/09 13:06:09;;;;;;;0.30;0.30;;;23.60;99.90;;;;;;4250632;33;20110;-78
2022/09/09 13:08:35;;;;;;;0.15;0.15;;;23.70;99.90;;;;;;4251681;33;20085;-78
2022/09/09 13:11:03;;;;;;;1.00;0.32;;;23.60;99.90;;;;;;4252438;33;20096;-79
2022/09/09 13:13:35;;;;;;;0.10;0.10;;;23.50;99.90;;;;;;4242463;33;20092;-76